首页
METAR-TAF:

METAR-TAF

机场 :

赤塔機場

赤塔, 俄罗斯

纬度: 52-05N, 经度: 113-29E, 海拔: 685米

当前天气观测

该预报发布于36分钟前的13:00 UTC
风速8节,风向西
温度 -13°C
湿度 47%
气压 1018 hPa
能见度10公里或以上

METAR: UIAA 171300Z AUTO 27004MPS 9999 NCD M13/M22 Q1018 RMK QFE705/0940

时间: 22:36 (13:36 UTC)

预报

该预报发布于2小时和36分钟前的11:00 UTC
预报有效从17日的 12点(UTC)到 18日的 12点(UTC)
风速10节,风向西,有时为23节阵风
能见度10公里或以上
短暂存在
从 17日的 12点(UTC)到 18日的 03点(UTC)
风速6节,风向南转西南

TAF: UIAA 171100Z 1712/1812 26005G12MPS 9999 NSC TEMPO 1712/1803 20003MPS

超过4000个机场的气象观测和天气预报(METAR&TAF报告)。

可查询的气象台以黄色和红色小点在地图上表示。

将鼠标移到小点上方,可查看气象台名称。

然后点击查看天气观测和预报。

如需切换地图:点击带黑十字的绿色按钮放大地图;点击带横线的绿色按钮缩小地图;或者点击绿色箭头查看邻近地区的地图。


METAR-TAF: